sensor_id;sensor_type;location;lat;lon;timestamp;P1;durP1;ratioP1;P2;durP2;ratioP2
45806;SDS011;31507;51.494;7.518;2022-08-11T00:02:25;3.17;;;1.50;;
45806;SDS011;31507;51.494;7.518;2022-08-11T00:05:22;6.03;;;2.00;;
45806;SDS011;31507;51.494;7.518;2022-08-11T00:07:52;5.78;;;1.67;;
45806;SDS011;31507;51.494;7.518;2022-08-11T00:10:24;5.88;;;1.90;;
45806;SDS011;31507;51.494;7.518;2022-08-11T00:12:58;2.30;;;1.33;;
45806;SDS011;31507;51.494;7.518;2022-08-11T00:15:28;4.13;;;1.90;;
45806;SDS011;31507;51.494;7.518;2022-08-11T00:18:05;6.75;;;1.40;;
45806;SDS011;31507;51.494;7.518;2022-08-11T00:20:31;2.72;;;1.48;;
45806;SDS011;31507;51.494;7.518;2022-08-11T00:23:08;3.05;;;1.73;;
45806;SDS011;31507;51.494;7.518;2022-08-11T00:25:45;3.25;;;1.55;;
45806;SDS011;31507;51.494;7.518;2022-08-11T00:28:32;6.07;;;1.50;;
45806;SDS011;31507;51.494;7.518;2022-08-11T00:31:00;5.60;;;1.70;;
45806;SDS011;31507;51.494;7.518;2022-08-11T00:36:12;13.35;;;1.80;;
45806;SDS011;31507;51.494;7.518;2022-08-11T00:38:41;3.75;;;1.40;;
45806;SDS011;31507;51.494;7.518;2022-08-11T00:41:54;6.10;;;1.77;;
45806;SDS011;31507;51.494;7.518;2022-08-11T00:47:13;7.85;;;1.40;;
45806;SDS011;31507;51.494;7.518;2022-08-11T00:49:34;8.43;;;2.20;;
45806;SDS011;31507;51.494;7.518;2022-08-11T01:39:45;3.35;;;1.75;;
45806;SDS011;31507;51.494;7.518;2022-08-11T01:45:36;3.17;;;1.88;;
45806;SDS011;31507;51.494;7.518;2022-08-11T01:48:04;1.77;;;1.48;;
45806;SDS011;31507;51.494;7.518;2022-08-11T01:56:20;3.45;;;1.33;;
45806;SDS011;31507;51.494;7.518;2022-08-11T02:06:59;4.28;;;2.08;;
45806;SDS011;31507;51.494;7.518;2022-08-11T02:12:57;4.22;;;1.80;;
45806;SDS011;31507;51.494;7.518;2022-08-11T02:15:37;3.13;;;1.77;;
45806;SDS011;31507;51.494;7.518;2022-08-11T02:18:32;4.95;;;1.70;;
45806;SDS011;31507;51.494;7.518;2022-08-11T02:21:23;4.72;;;1.90;;
45806;SDS011;31507;51.494;7.518;2022-08-11T02:26:49;6.28;;;1.70;;
45806;SDS011;31507;51.494;7.518;2022-08-11T02:29:34;5.40;;;1.75;;
45806;SDS011;31507;51.494;7.518;2022-08-11T02:32:14;5.28;;;2.13;;
45806;SDS011;31507;51.494;7.518;2022-08-11T02:40:33;5.32;;;2.08;;
45806;SDS011;31507;51.494;7.518;2022-08-11T02:43:06;3.85;;;1.70;;
45806;SDS011;31507;51.494;7.518;2022-08-11T02:45:55;4.97;;;1.92;;
45806;SDS011;31507;51.494;7.518;2022-08-11T02:48:47;7.38;;;1.92;;
45806;SDS011;31507;51.494;7.518;2022-08-11T02:54:43;3.78;;;1.80;;
45806;SDS011;31507;51.494;7.518;2022-08-11T02:57:39;3.55;;;2.03;;
45806;SDS011;31507;51.494;7.518;2022-08-11T03:08:11;2.90;;;1.70;;
45806;SDS011;31507;51.494;7.518;2022-08-11T03:17:02;6.10;;;2.72;;
45806;SDS011;31507;51.494;7.518;2022-08-11T03:28:25;7.65;;;2.42;;
45806;SDS011;31507;51.494;7.518;2022-08-11T03:33:45;4.55;;;2.25;;
45806;SDS011;31507;51.494;7.518;2022-08-11T03:36:40;6.88;;;2.10;;
45806;SDS011;31507;51.494;7.518;2022-08-11T04:13:12;9.73;;;2.60;;
45806;SDS011;31507;51.494;7.518;2022-08-11T04:18:45;7.60;;;2.95;;
45806;SDS011;31507;51.494;7.518;2022-08-11T04:24:08;8.57;;;3.47;;
45806;SDS011;31507;51.494;7.518;2022-08-11T04:27:00;8.43;;;3.25;;
45806;SDS011;31507;51.494;7.518;2022-08-11T04:29:38;6.78;;;3.10;;
45806;SDS011;31507;51.494;7.518;2022-08-11T04:35:03;5.07;;;2.92;;
45806;SDS011;31507;51.494;7.518;2022-08-11T04:40:17;3.80;;;3.03;;
45806;SDS011;31507;51.494;7.518;2022-08-11T04:58:36;6.57;;;2.97;;
45806;SDS011;31507;51.494;7.518;2022-08-11T05:04:32;9.32;;;3.40;;
45806;SDS011;31507;51.494;7.518;2022-08-11T05:10:55;5.55;;;2.83;;
45806;SDS011;31507;51.494;7.518;2022-08-11T05:13:33;7.32;;;3.33;;
45806;SDS011;31507;51.494;7.518;2022-08-11T05:16:27;15.75;;;3.80;;
45806;SDS011;31507;51.494;7.518;2022-08-11T05:19:18;22.08;;;4.03;;
45806;SDS011;31507;51.494;7.518;2022-08-11T05:22:05;7.40;;;3.30;;
45806;SDS011;31507;51.494;7.518;2022-08-11T05:24:58;9.90;;;3.40;;
45806;SDS011;31507;51.494;7.518;2022-08-11T05:30:37;9.05;;;3.47;;
45806;SDS011;31507;51.494;7.518;2022-08-11T05:33:32;15.75;;;3.78;;
45806;SDS011;31507;51.494;7.518;2022-08-11T05:36:48;11.85;;;3.75;;
45806;SDS011;31507;51.494;7.518;2022-08-11T05:39:18;8.48;;;3.13;;
45806;SDS011;31507;51.494;7.518;2022-08-11T05:42:08;6.05;;;2.95;;
45806;SDS011;31507;51.494;7.518;2022-08-11T05:44:54;10.85;;;3.35;;
45806;SDS011;31507;51.494;7.518;2022-08-11T05:47:42;6.55;;;2.50;;
45806;SDS011;31507;51.494;7.518;2022-08-11T05:50:31;7.18;;;2.90;;
45806;SDS011;31507;51.494;7.518;2022-08-11T05:53:16;9.70;;;2.60;;
45806;SDS011;31507;51.494;7.518;2022-08-11T05:56:03;14.65;;;3.38;;
45806;SDS011;31507;51.494;7.518;2022-08-11T05:58:49;31.02;;;4.10;;
45806;SDS011;31507;51.494;7.518;2022-08-11T06:01:20;20.30;;;4.55;;
45806;SDS011;31507;51.494;7.518;2022-08-11T06:03:53;14.15;;;3.15;;
45806;SDS011;31507;51.494;7.518;2022-08-11T06:06:42;13.38;;;2.55;;
45806;SDS011;31507;51.494;7.518;2022-08-11T06:11:59;5.57;;;2.78;;
45806;SDS011;31507;51.494;7.518;2022-08-11T06:14:28;13.07;;;2.80;;
45806;SDS011;31507;51.494;7.518;2022-08-11T06:16:57;11.00;;;2.53;;
45806;SDS011;31507;51.494;7.518;2022-08-11T06:19:30;24.92;;;3.75;;
45806;SDS011;31507;51.494;7.518;2022-08-11T06:22:02;11.15;;;3.50;;
45806;SDS011;31507;51.494;7.518;2022-08-11T06:24:29;4.53;;;2.22;;
45806;SDS011;31507;51.494;7.518;2022-08-11T06:26:56;7.00;;;2.08;;
45806;SDS011;31507;51.494;7.518;2022-08-11T06:29:23;7.85;;;2.90;;
45806;SDS011;31507;51.494;7.518;2022-08-11T06:31:55;4.18;;;2.10;;
45806;SDS011;31507;51.494;7.518;2022-08-11T06:40:15;7.03;;;2.60;;
45806;SDS011;31507;51.494;7.518;2022-08-11T06:43:19;4.60;;;2.13;;
45806;SDS011;31507;51.494;7.518;2022-08-11T06:45:56;6.68;;;2.03;;
45806;SDS011;31507;51.494;7.518;2022-08-11T06:48:27;11.43;;;2.55;;
45806;SDS011;31507;51.494;7.518;2022-08-11T06:50:58;10.73;;;2.42;;
45806;SDS011;31507;51.494;7.518;2022-08-11T06:53:55;8.48;;;2.72;;
45806;SDS011;31507;51.494;7.518;2022-08-11T06:56:26;5.63;;;2.78;;
45806;SDS011;31507;51.494;7.518;2022-08-11T06:59:15;8.77;;;2.63;;
45806;SDS011;31507;51.494;7.518;2022-08-11T07:02:04;6.70;;;2.30;;
45806;SDS011;31507;51.494;7.518;2022-08-11T07:04:43;10.25;;;2.70;;
45806;SDS011;31507;51.494;7.518;2022-08-11T07:13:18;5.47;;;2.10;;
45806;SDS011;31507;51.494;7.518;2022-08-11T07:16:06;11.00;;;2.20;;
45806;SDS011;31507;51.494;7.518;2022-08-11T07:18:34;11.88;;;2.75;;
45806;SDS011;31507;51.494;7.518;2022-08-11T07:21:23;7.32;;;2.47;;
45806;SDS011;31507;51.494;7.518;2022-08-11T07:24:16;7.53;;;2.10;;
45806;SDS011;31507;51.494;7.518;2022-08-11T07:27:07;4.40;;;1.98;;
45806;SDS011;31507;51.494;7.518;2022-08-11T07:29:55;5.90;;;2.07;;
45806;SDS011;31507;51.494;7.518;2022-08-11T07:32:27;5.40;;;1.98;;
45806;SDS011;31507;51.494;7.518;2022-08-11T07:35:15;9.93;;;2.30;;
45806;SDS011;31507;51.494;7.518;2022-08-11T07:37:46;7.15;;;2.10;;
45806;SDS011;31507;51.494;7.518;2022-08-11T07:40:23;9.27;;;2.38;;
45806;SDS011;31507;51.494;7.518;2022-08-11T07:42:50;2.80;;;2.00;;
45806;SDS011;31507;51.494;7.518;2022-08-11T07:45:17;4.05;;;2.30;;
45806;SDS011;31507;51.494;7.518;2022-08-11T07:48:02;10.32;;;2.65;;
45806;SDS011;31507;51.494;7.518;2022-08-11T07:50:47;9.85;;;2.20;;
45806;SDS011;31507;51.494;7.518;2022-08-11T07:53:32;10.75;;;1.95;;
45806;SDS011;31507;51.494;7.518;2022-08-11T07:56:02;13.50;;;2.40;;
45806;SDS011;31507;51.494;7.518;2022-08-11T07:58:30;5.10;;;2.20;;
45806;SDS011;31507;51.494;7.518;2022-08-11T08:01:18;9.55;;;2.25;;
45806;SDS011;31507;51.494;7.518;2022-08-11T08:04:07;7.15;;;2.25;;
45806;SDS011;31507;51.494;7.518;2022-08-11T08:06:55;6.47;;;2.15;;
45806;SDS011;31507;51.494;7.518;2022-08-11T08:09:40;11.77;;;1.98;;
45806;SDS011;31507;51.494;7.518;2022-08-11T08:12:26;11.65;;;2.30;;
45806;SDS011;31507;51.494;7.518;2022-08-11T08:15:12;4.45;;;1.95;;
45806;SDS011;31507;51.494;7.518;2022-08-11T08:17:58;5.90;;;2.28;;
45806;SDS011;31507;51.494;7.518;2022-08-11T08:20:28;10.63;;;2.35;;
45806;SDS011;31507;51.494;7.518;2022-08-11T08:22:57;8.07;;;2.28;;
45806;SDS011;31507;51.494;7.518;2022-08-11T08:25:25;7.25;;;2.15;;
45806;SDS011;31507;51.494;7.518;2022-08-11T08:28:04;8.18;;;1.90;;
45806;SDS011;31507;51.494;7.518;2022-08-11T08:30:34;6.28;;;2.17;;
45806;SDS011;31507;51.494;7.518;2022-08-11T08:33:20;9.00;;;2.17;;
45806;SDS011;31507;51.494;7.518;2022-08-11T08:35:50;4.72;;;1.75;;
45806;SDS011;31507;51.494;7.518;2022-08-11T08:38:35;5.00;;;2.00;;
45806;SDS011;31507;51.494;7.518;2022-08-11T08:41:22;7.15;;;2.00;;
45806;SDS011;31507;51.494;7.518;2022-08-11T08:43:54;7.13;;;1.90;;
45806;SDS011;31507;51.494;7.518;2022-08-11T08:46:33;4.43;;;1.75;;
45806;SDS011;31507;51.494;7.518;2022-08-11T08:49:13;15.50;;;2.05;;
45806;SDS011;31507;51.494;7.518;2022-08-11T08:51:42;5.22;;;2.08;;
45806;SDS011;31507;51.494;7.518;2022-08-11T08:54:11;8.50;;;2.20;;
45806;SDS011;31507;51.494;7.518;2022-08-11T08:56:41;4.32;;;1.80;;
45806;SDS011;31507;51.494;7.518;2022-08-11T08:59:09;6.25;;;1.70;;
45806;SDS011;31507;51.494;7.518;2022-08-11T09:04:23;9.00;;;2.28;;
45806;SDS011;31507;51.494;7.518;2022-08-11T09:06:50;10.30;;;2.20;;
45806;SDS011;31507;51.494;7.518;2022-08-11T09:09:19;7.32;;;1.85;;
45806;SDS011;31507;51.494;7.518;2022-08-11T09:11:46;8.95;;;2.17;;
45806;SDS011;31507;51.494;7.518;2022-08-11T09:17:14;4.80;;;2.25;;
45806;SDS011;31507;51.494;7.518;2022-08-11T09:19:42;10.23;;;2.15;;
45806;SDS011;31507;51.494;7.518;2022-08-11T09:22:10;4.35;;;1.90;;
45806;SDS011;31507;51.494;7.518;2022-08-11T09:24:55;12.55;;;2.35;;
45806;SDS011;31507;51.494;7.518;2022-08-11T09:27:41;8.73;;;2.33;;
45806;SDS011;31507;51.494;7.518;2022-08-11T09:30:07;3.80;;;1.83;;
45806;SDS011;31507;51.494;7.518;2022-08-11T09:32:36;11.90;;;2.17;;
45806;SDS011;31507;51.494;7.518;2022-08-11T09:35:03;7.85;;;1.95;;
45806;SDS011;31507;51.494;7.518;2022-08-11T09:37:30;5.45;;;1.85;;
45806;SDS011;31507;51.494;7.518;2022-08-11T09:40:16;4.18;;;1.80;;
45806;SDS011;31507;51.494;7.518;2022-08-11T09:42:57;2.42;;;1.80;;
45806;SDS011;31507;51.494;7.518;2022-08-11T09:45:52;5.18;;;1.80;;
45806;SDS011;31507;51.494;7.518;2022-08-11T09:48:20;7.47;;;1.80;;
45806;SDS011;31507;51.494;7.518;2022-08-11T09:50:49;7.68;;;1.90;;
45806;SDS011;31507;51.494;7.518;2022-08-11T09:53:20;4.93;;;2.20;;
45806;SDS011;31507;51.494;7.518;2022-08-11T09:55:46;3.33;;;1.60;;
45806;SDS011;31507;51.494;7.518;2022-08-11T09:58:14;6.35;;;2.22;;
45806;SDS011;31507;51.494;7.518;2022-08-11T10:00:41;3.17;;;1.85;;
45806;SDS011;31507;51.494;7.518;2022-08-11T10:03:11;3.38;;;1.98;;
45806;SDS011;31507;51.494;7.518;2022-08-11T10:05:43;9.18;;;1.80;;
45806;SDS011;31507;51.494;7.518;2022-08-11T10:08:29;4.15;;;1.90;;
45806;SDS011;31507;51.494;7.518;2022-08-11T10:10:58;8.25;;;2.60;;
45806;SDS011;31507;51.494;7.518;2022-08-11T10:13:33;5.10;;;2.08;;
45806;SDS011;31507;51.494;7.518;2022-08-11T10:16:25;5.07;;;1.60;;
45806;SDS011;31507;51.494;7.518;2022-08-11T10:18:52;7.07;;;1.90;;
45806;SDS011;31507;51.494;7.518;2022-08-11T10:21:31;5.93;;;1.70;;
45806;SDS011;31507;51.494;7.518;2022-08-11T10:24:05;6.13;;;2.05;;
45806;SDS011;31507;51.494;7.518;2022-08-11T10:26:52;4.10;;;1.90;;
45806;SDS011;31507;51.494;7.518;2022-08-11T10:29:20;9.23;;;1.80;;
45806;SDS011;31507;51.494;7.518;2022-08-11T10:32:08;3.92;;;1.83;;
45806;SDS011;31507;51.494;7.518;2022-08-11T10:34:53;4.55;;;2.00;;
45806;SDS011;31507;51.494;7.518;2022-08-11T10:37:21;2.15;;;1.58;;
45806;SDS011;31507;51.494;7.518;2022-08-11T10:39:49;5.43;;;1.50;;
45806;SDS011;31507;51.494;7.518;2022-08-11T10:42:16;3.97;;;1.95;;
45806;SDS011;31507;51.494;7.518;2022-08-11T10:45:02;3.72;;;1.50;;
45806;SDS011;31507;51.494;7.518;2022-08-11T10:47:50;7.15;;;1.80;;
45806;SDS011;31507;51.494;7.518;2022-08-11T10:50:20;6.28;;;1.70;;
45806;SDS011;31507;51.494;7.518;2022-08-11T10:53:07;6.07;;;1.73;;
45806;SDS011;31507;51.494;7.518;2022-08-11T10:55:52;1.88;;;1.65;;
45806;SDS011;31507;51.494;7.518;2022-08-11T10:58:38;7.35;;;2.17;;
45806;SDS011;31507;51.494;7.518;2022-08-11T11:01:14;10.82;;;1.90;;
45806;SDS011;31507;51.494;7.518;2022-08-11T11:04:01;3.15;;;1.67;;
45806;SDS011;31507;51.494;7.518;2022-08-11T11:09:02;4.57;;;1.65;;
45806;SDS011;31507;51.494;7.518;2022-08-11T11:11:35;6.82;;;1.80;;
45806;SDS011;31507;51.494;7.518;2022-08-11T11:14:21;4.32;;;1.70;;
45806;SDS011;31507;51.494;7.518;2022-08-11T11:17:10;10.63;;;2.08;;
45806;SDS011;31507;51.494;7.518;2022-08-11T11:19:37;4.88;;;1.73;;
45806;SDS011;31507;51.494;7.518;2022-08-11T11:22:04;2.45;;;1.90;;
45806;SDS011;31507;51.494;7.518;2022-08-11T11:28:05;10.52;;;2.58;;
45806;SDS011;31507;51.494;7.518;2022-08-11T11:31:25;8.00;;;1.75;;
45806;SDS011;31507;51.494;7.518;2022-08-11T11:33:49;9.73;;;2.05;;
45806;SDS011;31507;51.494;7.518;2022-08-11T11:38:51;6.43;;;1.75;;
45806;SDS011;31507;51.494;7.518;2022-08-11T11:41:20;4.45;;;1.75;;
45806;SDS011;31507;51.494;7.518;2022-08-11T11:43:54;9.57;;;1.90;;
45806;SDS011;31507;51.494;7.518;2022-08-11T11:46:22;2.67;;;1.70;;
45806;SDS011;31507;51.494;7.518;2022-08-11T11:48:50;3.10;;;1.88;;
45806;SDS011;31507;51.494;7.518;2022-08-11T11:51:18;4.28;;;1.80;;
45806;SDS011;31507;51.494;7.518;2022-08-11T11:53:44;6.43;;;1.80;;
45806;SDS011;31507;51.494;7.518;2022-08-11T11:56:12;6.85;;;1.90;;
45806;SDS011;31507;51.494;7.518;2022-08-11T11:58:39;8.30;;;1.77;;
45806;SDS011;31507;51.494;7.518;2022-08-11T12:01:24;5.47;;;1.80;;
45806;SDS011;31507;51.494;7.518;2022-08-11T12:03:52;3.30;;;2.08;;
45806;SDS011;31507;51.494;7.518;2022-08-11T12:06:20;13.73;;;2.33;;
45806;SDS011;31507;51.494;7.518;2022-08-11T12:08:48;2.80;;;2.00;;
45806;SDS011;31507;51.494;7.518;2022-08-11T12:11:15;9.40;;;1.65;;
45806;SDS011;31507;51.494;7.518;2022-08-11T12:14:03;6.95;;;1.77;;
45806;SDS011;31507;51.494;7.518;2022-08-11T12:16:31;6.80;;;1.70;;
45806;SDS011;31507;51.494;7.518;2022-08-11T12:19:00;7.47;;;1.77;;
45806;SDS011;31507;51.494;7.518;2022-08-11T12:21:27;9.88;;;2.03;;
45806;SDS011;31507;51.494;7.518;2022-08-11T12:23:54;11.07;;;1.83;;
45806;SDS011;31507;51.494;7.518;2022-08-11T12:26:40;5.07;;;1.50;;
45806;SDS011;31507;51.494;7.518;2022-08-11T12:29:13;3.47;;;1.60;;
45806;SDS011;31507;51.494;7.518;2022-08-11T12:31:41;11.82;;;1.77;;
45806;SDS011;31507;51.494;7.518;2022-08-11T12:34:15;25.90;;;3.17;;
45806;SDS011;31507;51.494;7.518;2022-08-11T12:36:52;9.68;;;2.55;;
45806;SDS011;31507;51.494;7.518;2022-08-11T12:39:22;5.00;;;1.60;;
45806;SDS011;31507;51.494;7.518;2022-08-11T12:42:10;10.13;;;2.00;;
45806;SDS011;31507;51.494;7.518;2022-08-11T12:44:57;2.40;;;1.40;;
45806;SDS011;31507;51.494;7.518;2022-08-11T12:47:46;2.78;;;1.77;;
45806;SDS011;31507;51.494;7.518;2022-08-11T12:50:37;4.40;;;1.70;;
45806;SDS011;31507;51.494;7.518;2022-08-11T12:53:23;5.10;;;1.60;;
45806;SDS011;31507;51.494;7.518;2022-08-11T12:55:54;4.18;;;1.73;;
45806;SDS011;31507;51.494;7.518;2022-08-11T12:58:40;3.75;;;1.67;;
45806;SDS011;31507;51.494;7.518;2022-08-11T13:01:08;5.28;;;1.70;;
45806;SDS011;31507;51.494;7.518;2022-08-11T13:03:53;9.82;;;2.00;;
45806;SDS011;31507;51.494;7.518;2022-08-11T13:06:38;14.55;;;2.30;;
45806;SDS011;31507;51.494;7.518;2022-08-11T13:09:05;4.18;;;1.48;;
45806;SDS011;31507;51.494;7.518;2022-08-11T13:11:34;4.63;;;1.85;;
45806;SDS011;31507;51.494;7.518;2022-08-11T13:14:20;4.10;;;1.60;;
45806;SDS011;31507;51.494;7.518;2022-08-11T13:16:47;8.52;;;1.52;;
45806;SDS011;31507;51.494;7.518;2022-08-11T13:19:32;7.32;;;1.70;;
45806;SDS011;31507;51.494;7.518;2022-08-11T13:21:58;6.72;;;1.88;;
45806;SDS011;31507;51.494;7.518;2022-08-11T13:24:29;11.82;;;1.88;;
45806;SDS011;31507;51.494;7.518;2022-08-11T13:26:58;4.57;;;1.50;;
45806;SDS011;31507;51.494;7.518;2022-08-11T13:29:24;4.50;;;1.80;;
45806;SDS011;31507;51.494;7.518;2022-08-11T13:31:53;5.28;;;1.83;;
45806;SDS011;31507;51.494;7.518;2022-08-11T13:34:24;2.95;;;1.75;;
45806;SDS011;31507;51.494;7.518;2022-08-11T13:36:53;7.65;;;1.58;;
45806;SDS011;31507;51.494;7.518;2022-08-11T13:39:21;3.03;;;1.70;;
45806;SDS011;31507;51.494;7.518;2022-08-11T13:41:50;3.78;;;1.90;;
45806;SDS011;31507;51.494;7.518;2022-08-11T13:44:21;5.72;;;1.73;;
45806;SDS011;31507;51.494;7.518;2022-08-11T13:46:48;4.43;;;1.35;;
45806;SDS011;31507;51.494;7.518;2022-08-11T13:49:15;5.00;;;1.55;;
45806;SDS011;31507;51.494;7.518;2022-08-11T13:51:43;4.68;;;1.60;;
45806;SDS011;31507;51.494;7.518;2022-08-11T13:54:15;10.27;;;1.98;;
45806;SDS011;31507;51.494;7.518;2022-08-11T13:56:44;5.90;;;1.67;;
45806;SDS011;31507;51.494;7.518;2022-08-11T13:59:12;3.67;;;1.45;;
45806;SDS011;31507;51.494;7.518;2022-08-11T14:01:46;5.18;;;1.83;;
45806;SDS011;31507;51.494;7.518;2022-08-11T14:04:14;8.27;;;1.90;;
45806;SDS011;31507;51.494;7.518;2022-08-11T14:06:45;3.25;;;1.50;;
45806;SDS011;31507;51.494;7.518;2022-08-11T14:09:17;3.63;;;1.80;;
45806;SDS011;31507;51.494;7.518;2022-08-11T14:11:47;7.35;;;1.60;;
45806;SDS011;31507;51.494;7.518;2022-08-11T14:14:32;5.72;;;1.92;;
45806;SDS011;31507;51.494;7.518;2022-08-11T14:17:00;10.68;;;1.60;;
45806;SDS011;31507;51.494;7.518;2022-08-11T14:19:31;5.87;;;2.00;;
45806;SDS011;31507;51.494;7.518;2022-08-11T14:21:59;11.30;;;1.70;;
45806;SDS011;31507;51.494;7.518;2022-08-11T14:24:36;5.32;;;1.70;;
45806;SDS011;31507;51.494;7.518;2022-08-11T14:27:03;3.65;;;1.70;;
45806;SDS011;31507;51.494;7.518;2022-08-11T14:29:31;7.28;;;1.73;;
45806;SDS011;31507;51.494;7.518;2022-08-11T14:32:02;6.03;;;1.70;;
45806;SDS011;31507;51.494;7.518;2022-08-11T14:34:33;7.47;;;1.77;;
45806;SDS011;31507;51.494;7.518;2022-08-11T14:37:11;6.63;;;1.70;;
45806;SDS011;31507;51.494;7.518;2022-08-11T14:39:46;8.55;;;2.13;;
45806;SDS011;31507;51.494;7.518;2022-08-11T14:42:22;7.95;;;1.70;;
45806;SDS011;31507;51.494;7.518;2022-08-11T14:45:14;15.32;;;2.13;;
45806;SDS011;31507;51.494;7.518;2022-08-11T14:48:00;6.90;;;1.92;;
45806;SDS011;31507;51.494;7.518;2022-08-11T14:50:30;3.55;;;1.90;;
45806;SDS011;31507;51.494;7.518;2022-08-11T14:55:30;7.95;;;2.10;;
45806;SDS011;31507;51.494;7.518;2022-08-11T14:58:19;9.50;;;2.10;;
45806;SDS011;31507;51.494;7.518;2022-08-11T15:00:49;4.25;;;1.90;;
45806;SDS011;31507;51.494;7.518;2022-08-11T15:03:21;7.90;;;1.98;;
45806;SDS011;31507;51.494;7.518;2022-08-11T15:05:53;3.45;;;1.73;;
45806;SDS011;31507;51.494;7.518;2022-08-11T15:08:21;7.47;;;1.80;;
45806;SDS011;31507;51.494;7.518;2022-08-11T15:11:07;4.80;;;1.63;;
45806;SDS011;31507;51.494;7.518;2022-08-11T15:13:55;8.88;;;1.98;;
45806;SDS011;31507;51.494;7.518;2022-08-11T15:16:24;8.57;;;2.10;;
45806;SDS011;31507;51.494;7.518;2022-08-11T15:19:11;7.35;;;2.03;;
45806;SDS011;31507;51.494;7.518;2022-08-11T15:21:38;8.02;;;2.25;;
45806;SDS011;31507;51.494;7.518;2022-08-11T15:24:22;8.35;;;1.98;;
45806;SDS011;31507;51.494;7.518;2022-08-11T15:26:48;6.13;;;1.80;;
45806;SDS011;31507;51.494;7.518;2022-08-11T15:29:34;6.93;;;1.85;;
45806;SDS011;31507;51.494;7.518;2022-08-11T15:32:21;1.92;;;1.67;;
45806;SDS011;31507;51.494;7.518;2022-08-11T15:35:07;7.03;;;2.03;;
45806;SDS011;31507;51.494;7.518;2022-08-11T15:37:54;8.02;;;1.77;;
45806;SDS011;31507;51.494;7.518;2022-08-11T15:40:24;5.00;;;1.90;;
45806;SDS011;31507;51.494;7.518;2022-08-11T15:43:20;7.53;;;1.90;;
45806;SDS011;31507;51.494;7.518;2022-08-11T15:46:18;11.13;;;1.80;;
45806;SDS011;31507;51.494;7.518;2022-08-11T15:48:49;6.38;;;2.08;;
45806;SDS011;31507;51.494;7.518;2022-08-11T15:54:34;2.67;;;1.80;;
45806;SDS011;31507;51.494;7.518;2022-08-11T15:57:03;12.20;;;2.22;;
45806;SDS011;31507;51.494;7.518;2022-08-11T15:59:30;2.25;;;1.83;;
45806;SDS011;31507;51.494;7.518;2022-08-11T16:02:17;4.82;;;1.98;;
45806;SDS011;31507;51.494;7.518;2022-08-11T16:05:07;10.60;;;1.95;;
45806;SDS011;31507;51.494;7.518;2022-08-11T16:07:41;4.15;;;1.75;;
45806;SDS011;31507;51.494;7.518;2022-08-11T16:10:13;6.15;;;2.00;;
45806;SDS011;31507;51.494;7.518;2022-08-11T16:13:01;3.22;;;1.60;;
45806;SDS011;31507;51.494;7.518;2022-08-11T16:15:39;3.70;;;1.70;;
45806;SDS011;31507;51.494;7.518;2022-08-11T16:18:32;8.35;;;1.98;;
45806;SDS011;31507;51.494;7.518;2022-08-11T16:21:16;10.90;;;2.10;;
45806;SDS011;31507;51.494;7.518;2022-08-11T16:23:45;5.57;;;1.90;;
45806;SDS011;31507;51.494;7.518;2022-08-11T16:26:14;9.38;;;2.00;;
45806;SDS011;31507;51.494;7.518;2022-08-11T16:28:43;14.23;;;2.10;;
45806;SDS011;31507;51.494;7.518;2022-08-11T16:31:10;7.95;;;2.10;;
45806;SDS011;31507;51.494;7.518;2022-08-11T16:33:38;8.30;;;2.03;;
45806;SDS011;31507;51.494;7.518;2022-08-11T16:36:08;7.97;;;2.03;;
45806;SDS011;31507;51.494;7.518;2022-08-11T16:39:07;3.22;;;1.85;;
45806;SDS011;31507;51.494;7.518;2022-08-11T16:41:34;5.15;;;1.80;;
45806;SDS011;31507;51.494;7.518;2022-08-11T16:44:21;3.45;;;1.80;;
45806;SDS011;31507;51.494;7.518;2022-08-11T16:47:09;2.28;;;1.80;;
45806;SDS011;31507;51.494;7.518;2022-08-11T16:49:43;5.32;;;1.80;;
45806;SDS011;31507;51.494;7.518;2022-08-11T16:52:11;3.75;;;1.90;;
45806;SDS011;31507;51.494;7.518;2022-08-11T16:54:38;6.28;;;1.70;;
45806;SDS011;31507;51.494;7.518;2022-08-11T16:57:09;8.18;;;1.90;;
45806;SDS011;31507;51.494;7.518;2022-08-11T16:59:58;2.40;;;1.73;;
45806;SDS011;31507;51.494;7.518;2022-08-11T17:02:30;10.93;;;2.03;;
45806;SDS011;31507;51.494;7.518;2022-08-11T17:05:18;6.85;;;2.28;;
45806;SDS011;31507;51.494;7.518;2022-08-11T17:08:06;4.38;;;2.28;;
45806;SDS011;31507;51.494;7.518;2022-08-11T17:10:53;5.22;;;2.10;;
45806;SDS011;31507;51.494;7.518;2022-08-11T17:13:54;6.70;;;2.15;;
45806;SDS011;31507;51.494;7.518;2022-08-11T17:16:27;5.78;;;2.00;;
45806;SDS011;31507;51.494;7.518;2022-08-11T17:19:09;6.75;;;2.10;;
45806;SDS011;31507;51.494;7.518;2022-08-11T17:21:38;8.10;;;1.80;;
45806;SDS011;31507;51.494;7.518;2022-08-11T17:24:26;4.65;;;2.20;;
45806;SDS011;31507;51.494;7.518;2022-08-11T17:26:55;4.32;;;2.13;;
45806;SDS011;31507;51.494;7.518;2022-08-11T17:29:27;6.85;;;1.90;;
45806;SDS011;31507;51.494;7.518;2022-08-11T17:31:56;8.70;;;2.40;;
45806;SDS011;31507;51.494;7.518;2022-08-11T17:34:45;13.10;;;2.20;;
45806;SDS011;31507;51.494;7.518;2022-08-11T17:37:31;2.22;;;2.00;;
45806;SDS011;31507;51.494;7.518;2022-08-11T17:39:59;3.75;;;1.70;;
45806;SDS011;31507;51.494;7.518;2022-08-11T17:42:28;2.42;;;2.05;;
45806;SDS011;31507;51.494;7.518;2022-08-11T17:45:15;3.55;;;1.80;;
45806;SDS011;31507;51.494;7.518;2022-08-11T17:48:01;5.90;;;1.92;;
45806;SDS011;31507;51.494;7.518;2022-08-11T17:50:47;7.20;;;1.73;;
45806;SDS011;31507;51.494;7.518;2022-08-11T17:53:14;5.93;;;2.10;;
45806;SDS011;31507;51.494;7.518;2022-08-11T17:56:00;5.45;;;1.90;;
45806;SDS011;31507;51.494;7.518;2022-08-11T17:58:47;4.50;;;2.00;;
45806;SDS011;31507;51.494;7.518;2022-08-11T18:01:36;4.03;;;1.73;;
45806;SDS011;31507;51.494;7.518;2022-08-11T18:04:04;5.40;;;2.10;;
45806;SDS011;31507;51.494;7.518;2022-08-11T18:06:31;4.85;;;2.00;;
45806;SDS011;31507;51.494;7.518;2022-08-11T18:08:58;4.38;;;1.90;;
45806;SDS011;31507;51.494;7.518;2022-08-11T18:11:46;2.85;;;1.80;;
45806;SDS011;31507;51.494;7.518;2022-08-11T18:14:32;5.30;;;1.77;;
45806;SDS011;31507;51.494;7.518;2022-08-11T18:17:19;8.57;;;2.00;;
45806;SDS011;31507;51.494;7.518;2022-08-11T18:20:04;4.05;;;2.17;;
45806;SDS011;31507;51.494;7.518;2022-08-11T18:22:49;2.25;;;1.65;;
45806;SDS011;31507;51.494;7.518;2022-08-11T18:25:40;7.00;;;2.13;;
45806;SDS011;31507;51.494;7.518;2022-08-11T18:28:28;6.95;;;2.00;;
45806;SDS011;31507;51.494;7.518;2022-08-11T18:31:28;5.22;;;1.90;;
45806;SDS011;31507;51.494;7.518;2022-08-11T18:34:15;8.65;;;2.17;;
45806;SDS011;31507;51.494;7.518;2022-08-11T18:37:09;4.25;;;2.33;;
45806;SDS011;31507;51.494;7.518;2022-08-11T18:39:59;6.10;;;2.17;;
45806;SDS011;31507;51.494;7.518;2022-08-11T18:42:47;4.38;;;2.17;;
45806;SDS011;31507;51.494;7.518;2022-08-11T18:45:33;4.03;;;2.13;;
45806;SDS011;31507;51.494;7.518;2022-08-11T18:48:19;5.20;;;2.10;;
45806;SDS011;31507;51.494;7.518;2022-08-11T18:51:05;3.13;;;1.92;;
45806;SDS011;31507;51.494;7.518;2022-08-11T18:53:53;7.45;;;2.30;;
45806;SDS011;31507;51.494;7.518;2022-08-11T18:56:43;4.18;;;2.33;;
45806;SDS011;31507;51.494;7.518;2022-08-11T18:59:30;5.47;;;2.35;;
45806;SDS011;31507;51.494;7.518;2022-08-11T19:02:22;2.40;;;2.08;;
45806;SDS011;31507;51.494;7.518;2022-08-11T19:05:09;5.28;;;2.45;;
45806;SDS011;31507;51.494;7.518;2022-08-11T19:07:54;5.22;;;2.08;;
45806;SDS011;31507;51.494;7.518;2022-08-11T19:10:41;8.48;;;2.55;;
45806;SDS011;31507;51.494;7.518;2022-08-11T19:13:28;9.27;;;2.40;;
45806;SDS011;31507;51.494;7.518;2022-08-11T19:16:14;2.92;;;2.33;;
45806;SDS011;31507;51.494;7.518;2022-08-11T19:19:00;6.88;;;2.42;;
45806;SDS011;31507;51.494;7.518;2022-08-11T19:21:46;5.18;;;2.35;;
45806;SDS011;31507;51.494;7.518;2022-08-11T19:24:33;7.60;;;2.45;;
45806;SDS011;31507;51.494;7.518;2022-08-11T19:27:19;4.68;;;2.30;;